Time;durP1;ratioP1;P1;durP2;ratioP2;P2;SDS_P1;SDS_P2;PMS_P1;PMS_P2;Temp;Humidity;BMP_temperature;BMP_pressure;BME280_temperature;BME280_humidity;BME280_pressure;Samples;Min_cycle;Max_cycle;Signal;HPM_P1;HPM_P2
2022/11/06 00:01:15;;;;;;;5.18;4.60;;;;;;;7.62;100.00;101510.94;5259451;28;20024;-83
2022/11/06 00:03:45;;;;;;;6.20;5.57;;;;;;;7.54;100.00;101495.09;5257340;28;20035;-84
2022/11/06 00:09:09;;;;;;;7.20;6.70;;;;;;;7.42;100.00;101474.34;5259668;28;20094;-84
2022/11/06 00:11:40;;;;;;;7.53;6.38;;;;;;;7.49;100.00;101492.28;5257417;28;20013;-85
2022/11/06 00:14:11;;;;;;;13.07;5.30;;;;;;;7.39;100.00;101482.84;5258668;28;20028;-84
2022/11/06 00:16:43;;;;;;;10.77;5.78;;;;;;;7.38;100.00;101478.50;5259525;28;20444;-84
2022/11/06 00:19:14;;;;;;;12.10;6.68;;;;;;;7.37;100.00;101462.59;5259178;28;20035;-83
2022/11/06 00:21:44;;;;;;;4.65;4.25;;;;;;;7.10;100.00;101413.66;5259747;28;20072;-84
2022/11/06 00:24:15;;;;;;;6.63;6.13;;;;;;;7.53;100.00;101493.44;5258798;28;20096;-84
2022/11/06 00:26:45;;;;;;;6.80;6.00;;;;;;;7.55;100.00;101484.13;5258565;28;20080;-83
2022/11/06 00:29:16;;;;;;;14.55;7.22;;;;;;;7.37;100.00;101457.22;5259202;28;20024;-83
2022/11/06 00:31:48;;;;;;;8.43;6.20;;;;;;;7.65;100.00;101484.47;5259616;28;20431;-84
2022/11/06 00:34:18;;;;;;;6.50;5.45;;;;;;;7.70;100.00;101489.19;5262394;28;20035;-83
2022/11/06 00:36:49;;;;;;;6.07;5.65;;;;;;;7.74;100.00;101479.63;5263368;28;20029;-84
2022/11/06 00:39:19;;;;;;;11.30;6.50;;;;;;;7.81;100.00;101474.97;5262623;28;20025;-84
2022/11/06 00:41:50;;;;;;;5.53;5.13;;;;;;;7.66;100.00;101440.41;5264301;28;20558;-85
2022/11/06 00:44:20;;;;;;;6.82;6.22;;;;;;;7.42;100.00;101393.72;5263495;28;20028;-84
2022/11/06 00:46:50;;;;;;;7.03;5.50;;;;;;;7.99;100.00;101484.94;5264053;28;20080;-85
2022/11/06 00:49:21;;;;;;;9.20;5.80;;;;;;;7.65;100.00;101425.31;5260501;28;20028;-84
2022/11/06 00:51:51;;;;;;;7.95;5.85;;;;;;;8.10;100.00;101481.50;5263924;28;20131;-84
2022/11/06 00:54:22;;;;;;;7.40;4.70;;;;;;;8.14;100.00;101480.81;5262613;28;20029;-84
2022/11/06 00:56:52;;;;;;;12.55;5.28;;;;;;;8.19;100.00;101474.78;5263465;28;20099;-84
2022/11/06 00:59:22;;;;;;;9.00;6.05;;;;;;;8.11;100.00;101457.06;5263507;28;20059;-85
2022/11/06 01:01:53;;;;;;;16.30;6.65;;;;;;;8.28;100.00;101478.81;5262306;28;20067;-84
2022/11/06 01:04:24;;;;;;;6.07;5.55;;;;;;;8.31;100.00;101474.84;5261323;28;20028;-85
2022/11/06 01:06:57;;;;;;;10.80;5.90;;;;;;;8.28;100.00;101456.47;5263349;28;20032;-84
2022/11/06 01:09:28;;;;;;;9.60;6.22;;;;;;;8.37;100.00;101464.00;5262914;28;20017;-84
2022/11/06 01:11:58;;;;;;;5.65;4.30;;;;;;;8.34;100.00;101453.72;5262344;28;20025;-84
2022/11/06 01:14:29;;;;;;;6.28;4.65;;;;;;;8.43;100.00;101459.59;5260346;28;20035;-84
2022/11/06 01:16:59;;;;;;;5.55;5.15;;;;;;;8.46;100.00;101440.31;5262419;28;20024;-82
2022/11/06 01:19:30;;;;;;;11.73;4.80;;;;;;;8.37;100.00;101430.94;5262796;28;20055;-83
2022/11/06 01:22:00;;;;;;;12.18;5.40;;;;;;;8.52;100.00;101458.25;5261084;28;20041;-83
2022/11/06 01:24:31;;;;;;;8.07;5.25;;;;;;;8.37;100.00;101428.25;5261708;28;20035;-84
2022/11/06 01:27:01;;;;;;;4.65;4.30;;;;;;;8.40;100.00;101433.97;5261900;28;20028;-84
2022/11/06 01:29:32;;;;;;;5.10;4.63;;;;;;;8.50;100.00;101441.50;5262120;28;20027;-82
2022/11/06 01:32:03;;;;;;;6.78;5.80;;;;;;;8.54;100.00;101452.63;5261088;28;20024;-84
2022/11/06 01:34:33;;;;;;;5.05;4.43;;;;;;;8.63;100.00;101449.41;5260043;28;20614;-82
2022/11/06 01:37:04;;;;;;;3.40;3.20;;;;;;;8.44;100.00;101412.81;5261348;28;20113;-83
2022/11/06 01:39:34;;;;;;;6.03;5.63;;;;;;;8.45;100.00;101406.38;5262439;28;20032;-82
2022/11/06 01:42:04;;;;;;;6.40;4.40;;;;;;;8.61;100.00;101416.50;5260541;28;20107;-82
2022/11/06 01:44:55;;;;;;;7.07;4.65;;;;;;;8.65;100.00;101425.78;5259544;28;20046;-83
2022/11/06 01:47:27;;;;;;;6.78;5.15;;;;;;;8.65;100.00;101433.03;5260913;28;20028;-84
2022/11/06 01:50:06;;;;;;;5.82;4.03;;;;;;;8.63;100.00;101418.97;5260226;28;20016;-83
2022/11/06 01:52:36;;;;;;;7.65;5.03;;;;;;;8.51;100.00;101394.69;5259822;28;20047;-81
2022/11/06 01:55:21;;;;;;;5.40;4.40;;;;;;;8.42;100.00;101383.41;5258886;28;20517;-83
2022/11/06 01:57:54;;;;;;;5.80;4.50;;;;;;;8.62;100.00;101414.63;5261943;28;20028;-83
2022/11/06 02:00:25;;;;;;;13.02;4.68;;;;;;;8.60;100.00;101405.97;5243266;22;20429;-67
2022/11/06 02:02:56;;;;;;;9.32;4.47;;;;;;;8.61;100.00;101408.44;5185215;28;20030;-68
2022/11/06 02:05:26;;;;;;;4.63;3.97;;;;;;;8.67;100.00;101420.94;5185521;28;20037;-68
2022/11/06 02:07:59;;;;;;;4.57;4.25;;;;;;;8.73;100.00;101420.03;5184074;28;20049;-65
2022/11/06 02:10:30;;;;;;;4.25;3.70;;;;;;;8.77;100.00;101413.16;5184315;28;20018;-65
2022/11/06 02:13:22;;;;;;;4.72;4.15;;;;;;;8.80;100.00;101399.22;5184429;28;20083;-68
2022/11/06 02:16:29;;;;;;;5.25;4.82;;;;;;;8.77;100.00;101391.59;5185879;28;20053;-67
2022/11/06 02:19:33;;;;;;;5.10;4.30;;;;;;;8.69;100.00;101397.31;5185270;28;20105;-66
2022/11/06 02:22:25;;;;;;;11.13;5.35;;;;;;;8.59;100.00;101382.78;5186521;28;20136;-67
2022/11/06 02:24:55;;;;;;;11.75;6.38;;;;;;;8.49;100.00;101388.72;5185118;28;20417;-68
2022/11/06 02:27:30;;;;;;;5.20;4.78;;;;;;;8.37;100.00;101385.97;5184790;28;20088;-68
2022/11/06 02:30:08;;;;;;;7.28;5.55;;;;;;;8.44;100.00;101396.66;5184916;28;20028;-65
2022/11/06 02:32:43;;;;;;;4.65;4.25;;;;;;;8.48;100.00;101392.47;5185680;28;20033;-67
2022/11/06 02:35:25;;;;;;;5.05;4.15;;;;;;;8.53;100.00;101389.91;5185620;28;20064;-68
2022/11/06 02:38:06;;;;;;;5.15;3.92;;;;;;;8.59;100.00;101391.69;5185794;28;20079;-68
2022/11/06 02:40:43;;;;;;;6.03;4.05;;;;;;;8.62;100.00;101390.41;5185081;28;20068;-65
2022/11/06 02:43:16;;;;;;;15.70;4.10;;;;;;;8.70;100.00;101398.13;5185358;28;20494;-68
2022/11/06 02:45:52;;;;;;;3.72;3.53;;;;;;;8.76;100.00;101406.13;5185706;28;20032;-67
2022/11/06 02:48:36;;;;;;;13.48;5.55;;;;;;;8.83;100.00;101402.50;5184451;28;20475;-68
2022/11/06 02:51:12;;;;;;;5.35;4.95;;;;;;;8.76;100.00;101376.50;5186633;28;20133;-68
2022/11/06 02:53:44;;;;;;;5.07;4.63;;;;;;;8.84;100.00;101379.91;5183401;28;20421;-68
2022/11/06 02:56:19;;;;;;;11.88;5.10;;;;;;;8.83;100.00;101379.09;5184731;28;20386;-68
2022/11/06 02:59:25;;;;;;;11.13;4.90;;;;;;;8.76;100.00;101368.41;5184502;28;20104;-67
2022/11/06 03:02:03;;;;;;;6.85;4.13;;;;;;;8.64;100.00;101367.59;5178298;28;20049;-66
2022/11/06 03:04:47;;;;;;;12.70;4.45;;;;;;;8.66;100.00;101368.16;5184749;28;20034;-68
2022/11/06 03:07:32;;;;;;;5.25;4.85;;;;;;;8.62;100.00;101368.88;5183799;28;20026;-68
2022/11/06 03:10:05;;;;;;;6.32;3.83;;;;;;;8.55;100.00;101358.19;5184181;28;20166;-67
2022/11/06 03:12:55;;;;;;;4.47;3.85;;;;;;;8.37;100.00;101348.28;5185152;28;20030;-67
2022/11/06 03:15:41;;;;;;;4.82;4.43;;;;;;;8.47;100.00;101355.81;5185020;28;20466;-68
2022/11/06 03:18:23;;;;;;;4.50;4.18;;;;;;;8.41;100.00;101354.88;5185181;28;20442;-67
2022/11/06 03:21:06;;;;;;;5.97;4.93;;;;;;;8.39;100.00;101361.53;5185103;28;20335;-67
2022/11/06 03:23:47;;;;;;;10.05;4.35;;;;;;;8.27;100.00;101336.44;5182972;28;20070;-68
2022/11/06 03:26:26;;;;;;;5.20;4.18;;;;;;;8.35;100.00;101344.22;5183663;28;20462;-67
2022/11/06 03:29:06;;;;;;;5.00;4.63;;;;;;;7.95;100.00;101282.06;5185248;28;20022;-68
2022/11/06 03:31:39;;;;;;;;;;;;;;;8.45;100.00;101336.38;5184003;28;20045;-67
2022/11/06 03:34:26;;;;;;;6.80;4.57;;;;;;;8.49;100.00;101334.88;5183543;28;19996;-67
2022/11/06 03:37:03;;;;;;;5.20;4.65;;;;;;;8.54;100.00;101329.63;5183672;28;20021;-68
2022/11/06 03:39:39;;;;;;;5.63;4.60;;;;;;;8.59;100.00;101328.94;5185650;28;20041;-67
2022/11/06 03:42:17;;;;;;;4.75;4.35;;;;;;;8.58;100.00;101324.63;5184204;28;20034;-68
2022/11/06 03:44:53;;;;;;;5.88;4.47;;;;;;;8.55;100.00;101327.75;5184394;28;20482;-68
2022/11/06 03:47:24;;;;;;;3.33;3.10;;;;;;;8.53;100.00;101325.31;5183619;28;20208;-68
2022/11/06 03:50:16;;;;;;;6.03;4.20;;;;;;;8.52;100.00;101307.50;5183858;28;20057;-67
2022/11/06 03:53:04;;;;;;;4.57;3.90;;;;;;;8.35;100.00;101285.03;5183559;28;20026;-68
2022/11/06 03:55:49;;;;;;;7.30;4.72;;;;;;;8.40;100.00;101304.78;5182861;28;20405;-68
2022/11/06 03:58:28;;;;;;;4.75;4.35;;;;;;;8.31;100.00;101299.94;5183109;28;20109;-68
2022/11/06 04:01:03;;;;;;;11.43;4.72;;;;;;;8.28;100.00;101297.72;5183694;28;20034;-65
2022/11/06 04:03:50;;;;;;;5.85;5.28;;;;;;;8.22;100.00;101293.25;5185012;28;20041;-68
2022/11/06 04:06:34;;;;;;;9.18;4.85;;;;;;;8.17;100.00;101288.56;5185421;28;20433;-68
2022/11/06 04:14:53;;;;;;;4.88;4.22;;;;;;;8.01;100.00;101284.66;5184830;28;20048;-68
2022/11/06 04:17:27;;;;;;;12.93;5.00;;;;;;;7.99;100.00;101284.06;5183181;28;20390;-68
2022/11/06 04:20:02;;;;;;;4.07;3.85;;;;;;;7.95;100.00;101274.81;5183380;28;20034;-68
2022/11/06 04:22:54;;;;;;;3.50;3.38;;;;;;;7.91;100.00;101260.16;5182949;28;20402;-67
2022/11/06 04:28:37;;;;;;;5.15;4.00;;;;;;;7.86;100.00;101261.91;5184701;28;20048;-68
2022/11/06 04:31:30;;;;;;;10.48;4.45;;;;;;;7.90;100.00;101255.84;5182071;28;20215;-67
2022/11/06 04:34:42;;;;;;;9.73;3.60;;;;;;;7.91;100.00;101265.56;5182561;28;20565;-67
2022/11/06 04:37:29;;;;;;;11.00;4.90;;;;;;;7.86;100.00;101270.78;5180405;28;20089;-67
2022/11/06 04:40:35;;;;;;;4.55;4.05;;;;;;;7.77;100.00;101266.78;5183824;28;20419;-66
2022/11/06 04:43:15;;;;;;;5.85;5.35;;;;;;;7.69;100.00;101253.66;5097612;28;20157;-65
2022/11/06 04:45:51;;;;;;;8.30;5.38;;;;;;;7.73;100.00;101265.59;5182446;28;20241;-67
2022/11/06 04:48:23;;;;;;;4.28;3.97;;;;;;;7.70;100.00;101271.44;5182256;28;20034;-67
2022/11/06 04:51:00;;;;;;;4.68;4.28;;;;;;;7.70;100.00;101263.38;5182263;28;20129;-67
2022/11/06 04:53:32;;;;;;;8.57;5.43;;;;;;;7.72;100.00;101253.22;5183190;28;20084;-66
2022/11/06 04:56:09;;;;;;;6.50;5.85;;;;;;;7.75;100.00;101247.38;5183695;28;20528;-66
2022/11/06 04:58:40;;;;;;;10.55;4.72;;;;;;;7.71;100.00;101240.81;5182566;28;20022;-67
2022/11/06 05:01:10;;;;;;;5.40;5.10;;;;;;;7.70;100.00;101239.19;5181196;28;20118;-67
2022/11/06 05:03:40;;;;;;;6.70;5.93;;;;;;;7.69;100.00;101237.53;5181020;28;20030;-66
2022/11/06 05:06:11;;;;;;;6.22;4.78;;;;;;;7.69;100.00;101234.84;5181138;28;20174;-66
2022/11/06 05:08:42;;;;;;;19.48;6.32;;;;;;;7.58;100.00;101224.84;5182340;28;20498;-67
2022/11/06 05:11:12;;;;;;;5.78;4.88;;;;;;;7.57;100.00;101228.59;5181989;28;20037;-67
2022/11/06 05:13:43;;;;;;;6.50;4.55;;;;;;;7.70;100.00;101244.56;5180491;28;20026;-66
2022/11/06 05:16:13;;;;;;;14.52;5.65;;;;;;;7.71;100.00;101246.19;5180448;28;20525;-66
2022/11/06 05:18:44;;;;;;;5.13;4.90;;;;;;;7.76;100.00;101235.59;5180084;28;20060;-66
2022/11/06 05:24:04;;;;;;;5.45;3.78;;;;;;;7.79;100.00;101235.13;5185295;28;20334;-66
2022/11/06 05:26:35;;;;;;;4.78;4.30;;;;;;;7.75;100.00;101240.13;5183778;28;20084;-67
2022/11/06 05:29:05;;;;;;;5.50;5.00;;;;;;;7.63;100.00;101216.94;5183581;28;20086;-67
2022/11/06 05:31:35;;;;;;;5.38;4.57;;;;;;;7.72;100.00;101234.41;5183502;28;20021;-66
2022/11/06 05:34:06;;;;;;;5.00;4.57;;;;;;;7.67;100.00;101227.00;5183479;28;20091;-67
2022/11/06 05:36:36;;;;;;;8.43;4.50;;;;;;;7.69;100.00;101230.28;5183598;28;20022;-66
2022/11/06 05:39:07;;;;;;;6.18;5.05;;;;;;;7.69;100.00;101229.47;5183496;28;20397;-67
2022/11/06 05:41:37;;;;;;;5.28;4.95;;;;;;;7.70;100.00;101223.03;5184390;28;20109;-67
2022/11/06 05:44:08;;;;;;;4.68;4.32;;;;;;;7.70;100.00;101220.34;5183003;28;20382;-66
2022/11/06 05:46:38;;;;;;;3.95;3.75;;;;;;;7.68;100.00;101204.47;5183242;28;20022;-66
2022/11/06 05:49:09;;;;;;;5.00;4.70;;;;;;;7.66;100.00;101200.34;5184654;28;20025;-66
2022/11/06 05:51:39;;;;;;;5.95;5.38;;;;;;;7.61;100.00;101187.59;5183202;28;20053;-66
2022/11/06 05:54:10;;;;;;;6.15;5.57;;;;;;;7.70;100.00;101196.16;5183122;28;20148;-66
2022/11/06 05:56:40;;;;;;;5.45;5.05;;;;;;;7.76;100.00;101212.22;5183670;28;20026;-66
2022/11/06 05:59:11;;;;;;;10.98;5.38;;;;;;;7.76;100.00;101201.44;5185257;28;20022;-67
2022/11/06 06:01:42;;;;;;;6.30;4.22;;;;;;;7.79;100.00;101203.69;5183345;28;20104;-66
2022/11/06 06:04:12;;;;;;;4.95;4.65;;;;;;;7.87;100.00;101191.75;5182774;28;20074;-66
2022/11/06 06:06:43;;;;;;;10.60;5.47;;;;;;;7.89;100.00;101189.66;5185091;28;20038;-67
2022/11/06 06:09:13;;;;;;;5.85;4.78;;;;;;;7.97;100.00;101192.03;5203334;28;20029;-66
2022/11/06 06:11:44;;;;;;;5.07;4.80;;;;;;;8.08;100.00;101198.50;5202995;28;20486;-66
2022/11/06 06:14:14;;;;;;;7.72;5.03;;;;;;;8.10;100.00;101189.13;5202695;28;20429;-66
2022/11/06 06:16:45;;;;;;;4.30;3.90;;;;;;;8.23;100.00;101198.03;5203192;28;20025;-66
2022/11/06 06:19:16;;;;;;;7.53;5.20;;;;;;;8.20;100.00;101175.09;5202704;28;20070;-67
2022/11/06 06:21:46;;;;;;;5.18;4.85;;;;;;;8.35;100.00;101194.34;5203175;28;20056;-66
2022/11/06 06:24:17;;;;;;;10.50;5.32;;;;;;;8.40;100.00;101185.56;5202764;28;20351;-66
2022/11/06 06:26:47;;;;;;;6.00;5.53;;;;;;;8.33;100.00;101180.31;5203211;28;20033;-66
2022/11/06 06:29:18;;;;;;;4.90;4.40;;;;;;;8.51;100.00;101197.38;5204398;28;20063;-67
2022/11/06 06:31:48;;;;;;;6.78;4.78;;;;;;;8.49;100.00;101184.16;5202150;28;20031;-67
2022/11/06 06:34:19;;;;;;;25.05;23.23;;;;;;;8.59;100.00;101191.66;5202355;28;20344;-66
2022/11/06 06:36:51;;;;;;;10.80;6.15;;;;;;;8.61;100.00;101187.69;5204241;28;20031;-67
2022/11/06 06:39:22;;;;;;;4.90;4.60;;;;;;;8.61;100.00;101181.47;5200054;28;20405;-66
2022/11/06 06:41:52;;;;;;;4.60;4.20;;;;;;;8.67;100.00;101186.72;5200073;28;20029;-66
2022/11/06 06:44:22;;;;;;;3.47;3.33;;;;;;;8.57;100.00;101173.03;5202082;28;20061;-66
2022/11/06 06:46:53;;;;;;;9.02;5.00;;;;;;;8.68;100.00;101180.28;5203798;28;20058;-66
2022/11/06 06:49:23;;;;;;;4.82;4.57;;;;;;;8.77;100.00;101192.34;5203133;28;20045;-66
2022/11/06 06:51:54;;;;;;;6.60;4.18;;;;;;;8.72;100.00;101176.06;5203007;28;20112;-67
2022/11/06 06:54:24;;;;;;;5.25;3.95;;;;;;;8.83;100.00;101182.50;5203504;28;20033;-67
2022/11/06 06:56:55;;;;;;;5.13;4.45;;;;;;;8.85;100.00;101172.31;5202010;28;20039;-65
2022/11/06 06:59:26;;;;;;;4.22;3.80;;;;;;;8.89;100.00;101186.13;5199032;28;20022;-66
2022/11/06 07:01:57;;;;;;;4.20;4.00;;;;;;;8.91;100.00;101181.31;5185176;28;20033;-66
2022/11/06 07:04:27;;;;;;;8.48;5.22;;;;;;;8.91;100.00;101178.63;5183610;28;20394;-66
2022/11/06 07:06:58;;;;;;;4.88;4.47;;;;;;;8.97;100.00;101193.81;5184956;28;20018;-68
2022/11/06 07:09:30;;;;;;;4.78;4.15;;;;;;;8.99;100.00;101189.00;5186721;28;20030;-65
2022/11/06 07:12:00;;;;;;;6.43;5.93;;;;;;;8.97;100.00;101174.97;5184776;28;20029;-66
2022/11/06 07:14:31;;;;;;;17.83;4.32;;;;;;;9.05;100.00;101182.69;5188021;28;20405;-65
2022/11/06 07:17:01;;;;;;;4.35;3.85;;;;;;;9.10;100.00;101180.09;5188359;28;20021;-65
2022/11/06 07:19:32;;;;;;;5.50;4.85;;;;;;;9.13;100.00;101166.16;5187815;28;20060;-65
2022/11/06 07:22:02;;;;;;;4.72;4.40;;;;;;;9.18;100.00;101160.06;5186542;28;20041;-66
2022/11/06 07:24:33;;;;;;;4.85;4.57;;;;;;;9.24;100.00;101167.19;5183898;28;20391;-66
2022/11/06 07:27:03;;;;;;;5.75;4.32;;;;;;;9.28;100.00;101161.06;5185212;28;20038;-66
2022/11/06 07:29:34;;;;;;;5.13;4.82;;;;;;;9.35;100.00;101171.69;5184176;28;20033;-65
2022/11/06 07:32:07;;;;;;;4.32;4.03;;;;;;;9.39;100.00;101164.78;5185247;28;20449;-68
2022/11/06 07:34:37;;;;;;;5.03;3.83;;;;;;;9.46;100.00;101152.78;5184272;28;20093;-67
2022/11/06 07:37:08;;;;;;;10.38;4.63;;;;;;;9.48;100.00;101153.38;5184831;28;20349;-67
2022/11/06 07:39:38;;;;;;;4.88;4.57;;;;;;;9.59;100.00;101156.25;5184835;28;20034;-67
2022/11/06 07:42:09;;;;;;;5.75;4.57;;;;;;;9.64;100.00;101154.47;5183107;28;20584;-68
2022/11/06 07:44:39;;;;;;;5.18;4.70;;;;;;;9.67;100.00;101155.84;5183540;28;20343;-64
2022/11/06 07:47:10;;;;;;;5.70;4.93;;;;;;;9.69;100.00;101154.56;5183075;28;20026;-66
2022/11/06 07:49:40;;;;;;;6.28;4.38;;;;;;;9.74;100.00;101161.91;5184034;28;20132;-67
2022/11/06 07:52:11;;;;;;;5.18;4.55;;;;;;;9.67;100.00;101143.19;5182712;28;20070;-66
2022/11/06 07:54:41;;;;;;;4.30;4.00;;;;;;;9.71;100.00;101152.44;5181202;28;20258;-66
2022/11/06 07:57:12;;;;;;;14.70;5.60;;;;;;;9.70;100.00;101141.88;5181666;28;20083;-67
2022/11/06 07:59:42;;;;;;;4.20;4.00;;;;;;;9.44;100.00;101095.59;5243527;22;20043;-84
2022/11/06 08:02:14;;;;;;;4.57;4.22;;;;;;;9.45;100.00;101091.84;5230259;28;20049;-85
2022/11/06 08:04:44;;;;;;;5.30;4.80;;;;;;;9.69;100.00;101113.28;5211897;28;20033;-84
2022/11/06 08:07:15;;;;;;;7.50;4.57;;;;;;;9.74;100.00;101134.94;5199135;28;20026;-85
2022/11/06 08:09:45;;;;;;;5.40;4.22;;;;;;;9.45;100.00;101074.88;5199724;28;20490;-85
2022/11/06 08:12:16;;;;;;;6.78;4.30;;;;;;;9.75;100.00;101123.09;5198939;28;20037;-85
2022/11/06 08:14:46;;;;;;;10.68;4.85;;;;;;;9.75;100.00;101123.09;5198012;28;20037;-84
2022/11/06 08:17:16;;;;;;;5.00;4.38;;;;;;;9.26;100.00;101044.59;5198928;28;20025;-84
2022/11/06 08:19:47;;;;;;;4.50;3.85;;;;;;;9.74;100.00;101116.88;5199178;28;20029;-84
2022/11/06 08:22:18;;;;;;;6.85;4.40;;;;;;;9.73;100.00;101114.44;5198830;28;20053;-84
2022/11/06 08:24:48;;;;;;;12.13;3.67;;;;;;;9.62;100.00;101107.22;5197742;28;20084;-84
2022/11/06 08:27:18;;;;;;;8.00;4.13;;;;;;;9.75;100.00;101102.34;5198525;28;20029;-84
2022/11/06 08:29:49;;;;;;;11.70;4.25;;;;;;;9.92;100.00;101112.31;5197574;28;20030;-84
2022/11/06 08:32:19;;;;;;;3.42;3.20;;;;;;;9.90;100.00;101093.66;5199228;28;20076;-85
2022/11/06 08:34:49;;;;;;;3.30;3.10;;;;;;;9.93;100.00;101093.19;5199337;28;20030;-84
2022/11/06 08:37:20;;;;;;;3.55;3.25;;;;;;;9.76;100.00;101071.63;5200486;28;20017;-85
2022/11/06 08:39:50;;;;;;;4.65;4.32;;;;;;;10.03;100.00;101103.31;5199889;28;20026;-85
2022/11/06 08:42:21;;;;;;;6.38;4.20;;;;;;;9.52;100.00;101034.28;5199914;28;20028;-81
2022/11/06 08:44:51;;;;;;;3.72;3.58;;;;;;;9.84;100.00;101073.06;5198475;28;20034;-84
2022/11/06 08:47:21;;;;;;;4.75;3.80;;;;;;;9.88;100.00;101062.59;5199468;28;20520;-84
2022/11/06 08:49:52;;;;;;;3.80;3.60;;;;;;;9.90;100.00;101036.22;5198835;28;20104;-83
2022/11/06 08:52:22;;;;;;;3.63;3.42;;;;;;;10.10;100.00;101039.22;5199785;28;20044;-82
2022/11/06 08:54:53;;;;;;;4.53;3.67;;;;;;;10.20;100.00;101035.84;5202850;28;20021;-85
2022/11/06 08:57:24;;;;;;;4.95;4.57;;;;;;;10.21;100.00;101016.72;5202845;28;20025;-84
2022/11/06 08:59:54;;;;;;;3.97;3.78;;;;;;;10.47;100.00;101034.88;5201236;28;20037;-84
2022/11/06 09:02:25;;;;;;;10.95;3.67;;;;;;;10.33;100.00;100995.03;5201853;28;20022;-86
2022/11/06 09:04:55;;;;;;;5.90;3.88;;;;;;;10.81;100.00;101057.16;5202076;28;20018;-83
2022/11/06 09:07:26;;;;;;;9.20;3.75;;;;;;;10.75;100.00;101060.88;5203272;28;20021;-82
2022/11/06 09:09:56;;;;;;;11.77;4.68;;;;;;;10.33;100.00;100998.53;5202682;28;20387;-83
2022/11/06 09:12:27;;;;;;;11.68;5.53;;;;;;;10.23;100.00;100989.47;5202401;28;20049;-84
2022/11/06 09:14:57;;;;;;;6.22;4.07;;;;;;;10.37;100.00;101015.06;5202069;28;20026;-85
2022/11/06 09:17:27;;;;;;;4.10;3.80;;;;;;;10.20;100.00;100995.38;5202405;28;20417;-83
2022/11/06 09:19:58;;;;;;;4.80;3.97;;;;;;;10.61;100.00;101054.22;5202818;28;20040;-84
2022/11/06 09:22:28;;;;;;;4.93;3.60;;;;;;;10.46;100.00;101022.44;5202640;28;20026;-86
2022/11/06 09:24:59;;;;;;;7.53;4.13;;;;;;;10.42;100.00;100993.50;5201235;28;20117;-84
2022/11/06 09:27:30;;;;;;;7.53;3.75;;;;;;;10.83;100.00;101044.22;5201780;28;20036;-82
2022/11/06 09:30:00;;;;;;;2.92;2.83;;;;;;;10.85;100.00;101026.94;5199382;28;20026;-83
2022/11/06 09:32:30;;;;;;;7.35;3.63;;;;;;;10.52;100.00;100987.41;5202709;28;20102;-83
2022/11/06 09:35:01;;;;;;;5.80;3.65;;;;;;;10.74;100.00;101032.22;5200207;28;20025;-83
2022/11/06 09:37:31;;;;;;;3.72;3.42;;;;;;;10.57;100.00;101012.59;5202437;28;20026;-83
2022/11/06 09:40:03;;;;;;;3.50;3.33;;;;;;;10.60;100.00;101043.69;5199952;28;20030;-83
2022/11/06 09:42:33;;;;;;;4.80;4.30;;;;;;;10.57;100.00;101038.78;5201607;28;20030;-84
2022/11/06 09:45:21;;;;;;;3.70;3.40;;;;;;;10.46;100.00;101010.81;5201069;28;20044;-84
2022/11/06 09:48:03;;;;;;;3.50;3.30;;;;;;;10.28;100.00;100971.47;5201152;28;20022;-85
2022/11/06 09:50:39;;;;;;;3.85;3.65;;;;;;;10.62;100.00;101018.06;5201257;28;20028;-85
2022/11/06 09:53:19;;;;;;;4.30;3.92;;;;;;;10.49;100.00;101002.22;5200916;28;20080;-84
2022/11/06 09:55:50;;;;;;;4.33;3.93;;;;;;;10.74;100.00;101029.53;5201497;28;20036;-86
2022/11/06 09:58:26;;;;;;;10.88;3.83;;;;;;;10.78;100.00;101017.16;5201418;28;20025;-85
2022/11/06 10:01:01;;;;;;;5.05;3.60;;;;;;;10.79;100.00;101007.97;5201491;28;20034;-84
2022/11/06 10:03:49;;;;;;;3.55;3.33;;;;;;;10.32;100.00;100925.91;5201089;28;20026;-84
2022/11/06 10:06:21;;;;;;;4.22;3.70;;;;;;;10.71;100.00;100972.50;5199602;28;20079;-84
2022/11/06 10:09:00;;;;;;;5.82;3.40;;;;;;;10.79;100.00;100972.03;5200805;28;20030;-84
2022/11/06 10:11:56;;;;;;;10.97;4.30;;;;;;;11.14;100.00;101001.31;5201320;28;20037;-83
2022/11/06 10:14:56;;;;;;;3.85;3.08;;;;;;;11.23;100.00;100988.16;5201909;28;20033;-85
2022/11/06 10:17:30;;;;;;;;;;;;;;;11.32;100.00;100986.59;5203359;28;20038;-83
2022/11/06 10:20:14;;;;;;;3.75;3.28;;;;;;;11.47;100.00;100976.72;5207396;28;19928;-83
2022/11/06 10:23:16;;;;;;;3.70;3.47;;;;;;;11.37;100.00;100952.28;5207660;28;20022;-82
2022/11/06 10:26:00;;;;;;;4.97;3.63;;;;;;;11.55;100.00;100971.91;5206464;28;20017;-82
2022/11/06 10:28:58;;;;;;;6.85;4.28;;;;;;;11.60;100.00;100966.50;5203346;28;20163;-85
2022/11/06 10:31:36;;;;;;;4.95;3.50;;;;;;;11.62;100.00;100962.47;5203319;28;20559;-83
2022/11/06 10:34:12;;;;;;;4.38;3.97;;;;;;;11.71;100.00;100960.09;5202482;28;20777;-84
2022/11/06 10:36:45;;;;;;;3.30;3.10;;;;;;;11.81;100.00;100968.31;5202599;28;20018;-86
2022/11/06 10:39:26;;;;;;;4.45;4.05;;;;;;;11.72;100.00;100929.28;5201638;28;20093;-83
2022/11/06 10:42:05;;;;;;;3.55;3.25;;;;;;;12.13;100.00;100941.13;5202678;28;20033;-84
2022/11/06 10:44:42;;;;;;;3.80;3.50;;;;;;;12.03;100.00;100911.34;5202210;28;20551;-83
2022/11/06 10:47:18;;;;;;;4.75;4.35;;;;;;;12.32;100.00;100944.22;5202478;28;20026;-84
2022/11/06 10:49:55;;;;;;;13.60;3.55;;;;;;;12.03;100.00;100912.16;5202308;28;20030;-84
2022/11/06 10:52:44;;;;;;;4.30;2.80;;;;;;;12.32;100.00;100945.03;5203414;28;20037;-87
2022/11/06 10:55:42;;;;;;;3.95;3.55;;;;;;;12.32;100.00;100955.03;5203991;28;20093;-84
2022/11/06 10:58:17;;;;;;;2.67;2.47;;;;;;;12.36;100.00;100942.59;5203520;28;20033;-84
2022/11/06 11:00:49;;;;;;;3.30;2.78;;;;;;;11.94;100.00;100867.72;5201993;28;20046;-85
2022/11/06 11:03:30;;;;;;;5.70;3.10;;;;;;;12.26;100.00;100920.88;5201012;28;20035;-84
2022/11/06 11:06:03;;;;;;;12.77;5.05;;;;;;;12.28;100.00;100897.06;5201259;28;20021;-86
2022/11/06 11:08:41;;;;;;;3.72;3.53;;;;;;;12.30;100.00;100905.75;5204525;28;20018;-85
2022/11/06 11:11:14;;;;;;;3.05;2.70;;;;;;;12.39;100.00;100918.50;5204553;28;20025;-84
2022/11/06 11:13:47;;;;;;;3.85;3.55;;;;;;;12.11;100.00;100881.88;5202533;28;20098;-87
2022/11/06 11:16:22;;;;;;;3.33;3.03;;;;;;;11.89;100.00;100851.44;5206697;28;20038;-83
2022/11/06 11:18:53;;;;;;;4.07;3.67;;;;;;;11.84;100.00;100859.53;5202881;28;20025;-86
2022/11/06 11:21:26;;;;;;;4.00;3.72;;;;;;;11.92;100.00;100872.56;5201198;28;20052;-85
2022/11/06 11:23:59;;;;;;;5.03;3.75;;;;;;;11.97;100.00;100875.31;5202411;28;20018;-85
2022/11/06 11:26:32;;;;;;;3.60;3.30;;;;;;;11.95;100.00;100865.81;5202100;28;20030;-85
2022/11/06 11:29:14;;;;;;;11.65;4.35;;;;;;;12.11;100.00;100892.69;5200779;28;20033;-84
2022/11/06 11:31:49;;;;;;;2.70;2.55;;;;;;;11.95;100.00;100861.22;5202010;28;20110;-85
2022/11/06 11:34:30;;;;;;;5.55;2.53;;;;;;;11.79;100.00;100836.00;5201797;28;20021;-87
2022/11/06 11:37:03;;;;;;;4.13;2.58;;;;;;;12.10;100.00;100884.84;5200937;28;20021;-84
2022/11/06 11:39:39;;;;;;;3.40;3.10;;;;;;;11.92;100.00;100840.09;5200607;28;20032;-85
2022/11/06 11:42:22;;;;;;;5.70;3.90;;;;;;;12.12;100.00;100855.63;5202161;28;20026;-86
2022/11/06 11:45:10;;;;;;;3.42;3.13;;;;;;;12.11;100.00;100854.81;5199342;28;20064;-83
2022/11/06 11:47:45;;;;;;;4.20;2.83;;;;;;;12.04;100.00;100854.22;5200987;28;20022;-86
2022/11/06 11:50:26;;;;;;;5.88;3.53;;;;;;;11.52;100.00;100780.41;5200592;28;20044;-87
2022/11/06 11:53:10;;;;;;;4.45;3.05;;;;;;;12.03;100.00;100851.78;5200245;28;20091;-87
2022/11/06 11:55:45;;;;;;;3.60;3.22;;;;;;;11.39;100.00;100750.06;5199855;28;20317;-87
2022/11/06 11:58:25;;;;;;;4.05;3.08;;;;;;;11.32;100.00;100744.06;5201588;28;20613;-86
2022/11/06 12:00:59;;;;;;;3.63;3.33;;;;;;;11.82;100.00;100840.91;5212439;28;20087;-87
2022/11/06 12:03:40;;;;;;;2.92;2.72;;;;;;;11.41;100.00;100804.69;5202076;28;20080;-87
2022/11/06 12:06:17;;;;;;;7.35;3.40;;;;;;;11.50;100.00;100818.53;5202630;28;20025;-86
2022/11/06 12:08:52;;;;;;;2.20;2.10;;;;;;;11.52;100.00;100812.88;5204476;28;20563;-85
2022/11/06 12:11:27;;;;;;;3.92;3.58;;;;;;;11.62;100.00;100832.63;5219495;28;20017;-87